createdAt,value
2019-02-17T00:02:02.437Z,4.30
2019-02-17T00:04:30.720Z,4.30
2019-02-17T00:06:59.223Z,4.40
2019-02-17T00:09:27.584Z,4.50
2019-02-17T00:11:55.974Z,4.50
2019-02-17T00:14:24.443Z,4.40
2019-02-17T00:16:52.792Z,4.30
2019-02-17T00:19:21.099Z,4.30
2019-02-17T00:21:49.405Z,4.30
2019-02-17T00:24:17.720Z,4.40
2019-02-17T00:26:45.999Z,4.60
2019-02-17T00:29:14.312Z,4.60
2019-02-17T00:31:42.601Z,4.50
2019-02-17T00:34:10.903Z,4.50
2019-02-17T00:36:39.183Z,4.30
2019-02-17T00:39:07.502Z,4.40
2019-02-17T00:41:35.862Z,4.40
2019-02-17T00:44:04.240Z,4.40
2019-02-17T00:46:32.553Z,4.50
2019-02-17T00:49:01.428Z,4.50
2019-02-17T00:51:29.824Z,4.50
2019-02-17T00:53:58.134Z,4.40
2019-02-17T00:56:26.420Z,4.30
2019-02-17T00:58:54.747Z,4.20
2019-02-17T01:01:23.031Z,4.10
2019-02-17T01:03:51.314Z,4.00
2019-02-17T01:06:19.620Z,3.80
2019-02-17T01:08:47.891Z,3.50
2019-02-17T01:11:16.208Z,3.60
2019-02-17T01:13:44.524Z,3.70
2019-02-17T01:16:12.843Z,3.90
2019-02-17T01:18:41.191Z,4.00
2019-02-17T01:21:09.517Z,4.00
2019-02-17T01:23:37.902Z,4.10
2019-02-17T01:26:06.179Z,4.20
2019-02-17T01:28:34.491Z,4.10
2019-02-17T01:31:02.851Z,4.10
2019-02-17T01:33:31.209Z,4.00
2019-02-17T01:35:59.588Z,3.90
2019-02-17T01:38:27.891Z,3.90
2019-02-17T01:40:56.248Z,4.00
2019-02-17T01:43:24.562Z,3.90
2019-02-17T01:45:52.836Z,3.70
2019-02-17T01:48:21.151Z,3.60
2019-02-17T01:50:49.535Z,3.50
2019-02-17T01:53:17.843Z,3.30
2019-02-17T01:55:47.034Z,3.10
2019-02-17T01:58:15.444Z,3.10
2019-02-17T02:00:43.859Z,3.00
2019-02-17T02:03:12.270Z,3.00
2019-02-17T02:05:40.550Z,3.00
2019-02-17T02:08:08.834Z,3.10
2019-02-17T02:10:37.145Z,3.10
2019-02-17T02:13:05.469Z,3.00
2019-02-17T02:15:33.784Z,3.00
2019-02-17T02:18:02.139Z,3.00
2019-02-17T02:20:30.420Z,3.00
2019-02-17T02:22:58.731Z,3.10
2019-02-17T02:25:27.016Z,3.00
2019-02-17T02:27:55.327Z,3.10
2019-02-17T02:30:23.682Z,3.10
2019-02-17T02:32:52.063Z,2.90
2019-02-17T02:35:20.378Z,2.70
2019-02-17T02:37:48.725Z,2.50
2019-02-17T02:40:17.036Z,2.40
2019-02-17T02:42:45.327Z,2.20
2019-02-17T02:45:13.642Z,2.20
2019-02-17T02:47:41.915Z,2.20
2019-02-17T02:50:11.172Z,2.10
2019-02-17T02:52:39.485Z,2.20
2019-02-17T02:55:08.976Z,2.30
2019-02-17T02:57:37.404Z,2.40
2019-02-17T03:00:09.063Z,2.50
2019-02-17T03:02:37.377Z,2.50
2019-02-17T03:05:06.795Z,2.60
2019-02-17T03:07:35.109Z,2.50
2019-02-17T03:10:03.421Z,2.50
2019-02-17T03:12:31.701Z,2.50
2019-02-17T03:15:00.094Z,2.60
2019-02-17T03:17:28.549Z,2.60
2019-02-17T03:19:56.844Z,2.70
2019-02-17T03:22:25.236Z,2.70
2019-02-17T03:24:53.592Z,2.70
2019-02-17T03:27:21.916Z,2.70
2019-02-17T03:29:50.204Z,2.70
2019-02-17T03:32:18.614Z,2.70
2019-02-17T03:34:46.971Z,2.80
2019-02-17T03:37:15.347Z,2.70
2019-02-17T03:39:43.624Z,2.70
2019-02-17T03:42:11.936Z,2.60
2019-02-17T03:44:40.249Z,2.50
2019-02-17T03:47:08.527Z,2.50
2019-02-17T03:49:36.843Z,2.50
2019-02-17T03:52:05.126Z,2.50
2019-02-17T03:54:33.431Z,2.30
2019-02-17T03:57:01.746Z,2.20
2019-02-17T03:59:30.101Z,2.10
2019-02-17T04:01:58.419Z,2.00
2019-02-17T04:04:26.788Z,2.00
2019-02-17T04:06:55.110Z,2.00
2019-02-17T04:09:23.475Z,2.00
2019-02-17T04:11:51.832Z,2.10
2019-02-17T04:14:20.212Z,2.20
2019-02-17T04:16:48.569Z,2.30
2019-02-17T04:19:16.882Z,2.40
2019-02-17T04:21:45.489Z,2.60
2019-02-17T04:24:13.836Z,2.50
2019-02-17T04:26:42.116Z,2.40
2019-02-17T04:29:10.445Z,2.20
2019-02-17T04:31:38.804Z,2.20
2019-02-17T04:34:07.082Z,2.10
2019-02-17T04:36:35.395Z,1.90
2019-02-17T04:39:05.107Z,1.90
2019-02-17T04:41:33.415Z,2.00
2019-02-17T04:44:01.800Z,2.10
2019-02-17T04:46:30.178Z,2.30
2019-02-17T04:48:58.562Z,2.40
2019-02-17T04:51:26.841Z,2.30
2019-02-17T04:53:55.148Z,2.20
2019-02-17T04:56:23.429Z,2.10
2019-02-17T04:58:51.741Z,2.20
2019-02-17T05:01:20.018Z,2.40
2019-02-17T05:03:48.328Z,2.40
2019-02-17T05:06:16.604Z,2.40
2019-02-17T05:08:44.915Z,2.30
2019-02-17T05:11:13.195Z,2.30
2019-02-17T05:13:41.513Z,2.20
2019-02-17T05:16:09.891Z,2.20
2019-02-17T05:18:38.176Z,2.20
2019-02-17T05:21:06.571Z,2.20
2019-02-17T05:23:34.929Z,2.20
2019-02-17T05:26:03.648Z,2.10
2019-02-17T05:28:31.975Z,2.10
2019-02-17T05:31:00.291Z,2.00
2019-02-17T05:33:28.650Z,2.00
2019-02-17T05:35:57.033Z,1.90
2019-02-17T05:38:25.341Z,1.90
2019-02-17T05:40:53.621Z,1.80
2019-02-17T05:43:22.008Z,1.70
2019-02-17T05:45:50.356Z,1.70
2019-02-17T05:48:18.735Z,1.70
2019-02-17T05:50:47.128Z,1.70
2019-02-17T05:53:15.489Z,1.70
2019-02-17T05:55:43.840Z,1.70
2019-02-17T05:58:12.152Z,1.70
2019-02-17T06:00:40.700Z,1.70
2019-02-17T06:03:09.079Z,1.80
2019-02-17T06:05:37.404Z,1.90
2019-02-17T06:08:05.760Z,2.00
2019-02-17T06:10:34.070Z,2.00
2019-02-17T06:13:02.457Z,2.00
2019-02-17T06:15:30.765Z,1.90
2019-02-17T06:17:59.072Z,1.80
2019-02-17T06:20:27.353Z,1.90
2019-02-17T06:22:55.736Z,1.90
2019-02-17T06:25:24.121Z,1.90
2019-02-17T06:27:52.423Z,1.90
2019-02-17T06:30:20.735Z,1.90
2019-02-17T06:32:49.021Z,1.90
2019-02-17T06:35:17.399Z,1.90
2019-02-17T06:37:45.708Z,1.90
2019-02-17T06:40:13.988Z,1.90
2019-02-17T06:42:42.384Z,2.00
2019-02-17T06:45:10.678Z,2.00
2019-02-17T06:47:38.956Z,2.00
2019-02-17T06:50:09.813Z,1.90
2019-02-17T06:52:38.109Z,1.90
2019-02-17T06:55:10.744Z,1.90
2019-02-17T06:57:40.736Z,1.90
2019-02-17T07:00:14.823Z,1.90
2019-02-17T07:02:43.178Z,1.90
2019-02-17T07:05:31.302Z,1.90
2019-02-17T07:07:59.595Z,1.90
2019-02-17T07:10:27.907Z,2.00
2019-02-17T07:12:56.210Z,2.00
2019-02-17T07:15:24.489Z,2.10
2019-02-17T07:17:52.810Z,2.10
2019-02-17T07:20:21.156Z,2.20
2019-02-17T07:22:49.483Z,2.10
2019-02-17T07:25:17.767Z,2.20
2019-02-17T07:27:46.042Z,2.20
2019-02-17T07:30:14.361Z,2.40
2019-02-17T07:32:42.743Z,2.60
2019-02-17T07:35:11.053Z,2.80
2019-02-17T07:37:39.328Z,3.00
2019-02-17T07:40:07.894Z,3.20
2019-02-17T07:42:36.228Z,3.30
2019-02-17T07:45:06.607Z,3.50
2019-02-17T07:47:34.913Z,3.60
2019-02-17T07:50:03.461Z,3.80
2019-02-17T07:52:31.776Z,3.70
2019-02-17T07:55:00.055Z,3.70
2019-02-17T07:57:28.428Z,3.60
2019-02-17T07:59:56.811Z,3.70
2019-02-17T08:02:25.119Z,3.70
2019-02-17T08:04:53.393Z,3.80
2019-02-17T08:07:21.700Z,3.80
2019-02-17T08:09:50.008Z,3.90
2019-02-17T08:12:18.316Z,4.00
2019-02-17T08:14:46.593Z,4.10
2019-02-17T08:17:14.975Z,4.40
2019-02-17T08:19:43.280Z,4.70
2019-02-17T08:22:11.587Z,4.90
2019-02-17T08:24:39.901Z,5.10
2019-02-17T08:27:08.213Z,5.20
2019-02-17T08:29:36.578Z,5.20
2019-02-17T08:32:04.962Z,5.20
2019-02-17T08:34:33.250Z,5.10
2019-02-17T08:37:01.843Z,5.20
2019-02-17T08:39:30.203Z,5.20
2019-02-17T08:41:58.479Z,5.10
2019-02-17T08:44:26.770Z,5.40
2019-02-17T08:46:55.153Z,5.60
2019-02-17T08:49:23.536Z,5.60
2019-02-17T08:51:51.815Z,5.80
2019-02-17T08:54:20.106Z,6.00
2019-02-17T08:56:48.474Z,6.20
2019-02-17T08:59:16.783Z,6.10
2019-02-17T09:01:45.065Z,6.20
2019-02-17T09:04:13.371Z,6.40
2019-02-17T09:06:41.654Z,6.60
2019-02-17T09:09:09.961Z,6.70
2019-02-17T09:11:38.244Z,6.80
2019-02-17T09:14:06.628Z,7.10
2019-02-17T09:16:35.008Z,7.10
2019-02-17T09:19:04.607Z,7.20
2019-02-17T09:21:32.979Z,7.30
2019-02-17T09:24:01.255Z,7.40
2019-02-17T09:26:29.763Z,7.20
2019-02-17T09:28:58.219Z,7.20
2019-02-17T09:31:26.544Z,7.40
2019-02-17T09:33:54.824Z,7.70
2019-02-17T09:36:23.104Z,7.80
2019-02-17T09:38:51.431Z,8.00
2019-02-17T09:41:19.813Z,7.70
2019-02-17T09:43:48.181Z,8.10
2019-02-17T09:46:16.540Z,8.00
2019-02-17T09:48:44.848Z,8.40
2019-02-17T09:51:13.123Z,8.30
2019-02-17T09:53:41.453Z,8.10
2019-02-17T09:56:09.748Z,7.90
2019-02-17T09:58:38.105Z,8.00
2019-02-17T10:01:06.415Z,8.20
2019-02-17T10:03:34.708Z,8.40
2019-02-17T10:06:03.029Z,9.00
2019-02-17T10:08:31.350Z,9.40
2019-02-17T10:10:59.739Z,9.50
2019-02-17T10:13:28.064Z,9.80
2019-02-17T10:15:56.379Z,10.00
2019-02-17T10:18:24.691Z,10.00
2019-02-17T10:20:52.970Z,9.90
2019-02-17T10:23:22.264Z,9.90
2019-02-17T10:25:50.614Z,9.50
2019-02-17T10:28:19.009Z,9.80
2019-02-17T10:30:47.384Z,9.50
2019-02-17T10:33:15.780Z,9.90
2019-02-17T10:35:44.086Z,10.10
2019-02-17T10:38:12.483Z,10.30
2019-02-17T10:40:40.772Z,10.60
2019-02-17T10:43:09.176Z,10.80
2019-02-17T10:45:37.466Z,10.90
2019-02-17T10:48:05.866Z,10.90
2019-02-17T10:50:34.257Z,10.70
2019-02-17T10:53:02.577Z,10.80
2019-02-17T10:55:30.876Z,10.70
2019-02-17T10:57:59.260Z,10.90
2019-02-17T11:00:29.216Z,11.00
2019-02-17T11:03:06.106Z,11.10
2019-02-17T11:05:34.425Z,11.50
2019-02-17T11:08:02.796Z,11.40
2019-02-17T11:10:31.175Z,11.70
2019-02-17T11:12:59.487Z,11.90
2019-02-17T11:15:27.803Z,12.00
2019-02-17T11:17:56.095Z,12.20
2019-02-17T11:20:24.417Z,12.50
2019-02-17T11:22:52.696Z,12.70
2019-02-17T11:25:21.088Z,12.60
2019-02-17T11:27:49.412Z,12.90
2019-02-17T11:30:19.477Z,12.90
2019-02-17T11:32:57.171Z,13.40
2019-02-17T11:35:17.807Z,13.20
2019-02-17T11:37:46.132Z,13.30
2019-02-17T11:40:14.416Z,13.50
2019-02-17T11:42:42.806Z,13.30
2019-02-17T11:45:13.574Z,13.50
2019-02-17T11:47:41.896Z,13.50
2019-02-17T11:50:10.181Z,13.00
2019-02-17T11:52:38.498Z,12.90
2019-02-17T11:55:12.392Z,12.90
2019-02-17T11:57:40.724Z,13.30
2019-02-17T12:00:17.203Z,13.20
2019-02-17T12:02:45.515Z,14.00
2019-02-17T12:05:13.805Z,13.90
2019-02-17T12:07:42.190Z,13.90
2019-02-17T12:10:11.455Z,14.30
2019-02-17T12:12:39.919Z,14.30
2019-02-17T12:15:10.923Z,14.50
2019-02-17T12:17:39.207Z,14.50
2019-02-17T12:20:23.016Z,14.20
2019-02-17T12:22:52.943Z,13.80
2019-02-17T12:25:22.911Z,14.00
2019-02-17T12:27:52.916Z,13.70
2019-02-17T12:30:21.403Z,13.90
2019-02-17T12:32:49.743Z,14.00
2019-02-17T12:35:18.064Z,14.00
2019-02-17T12:37:47.387Z,13.90
2019-02-17T12:40:15.977Z,13.90
2019-02-17T12:42:44.307Z,13.90
2019-02-17T12:45:16.240Z,14.00
2019-02-17T12:47:43.564Z,14.00
2019-02-17T12:50:12.171Z,14.00
2019-02-17T12:52:47.033Z,14.10
2019-02-17T12:55:10.576Z,14.20
2019-02-17T12:57:38.857Z,14.40
2019-02-17T13:00:13.460Z,14.60
2019-02-17T13:02:41.739Z,14.40
2019-02-17T13:05:10.463Z,14.30
2019-02-17T13:07:38.789Z,14.50
2019-02-17T13:10:14.047Z,14.70
2019-02-17T13:12:42.336Z,14.90
2019-02-17T13:15:13.040Z,15.00
2019-02-17T13:17:50.065Z,15.20
2019-02-17T13:20:18.155Z,15.00
2019-02-17T13:22:46.476Z,15.10
2019-02-17T13:25:18.328Z,15.10
2019-02-17T13:27:46.653Z,15.10
2019-02-17T13:30:20.850Z,14.80
2019-02-17T13:32:49.167Z,14.90
2019-02-17T13:35:17.456Z,14.90
2019-02-17T13:37:45.788Z,15.00
2019-02-17T13:40:14.368Z,15.10
2019-02-17T13:42:42.674Z,15.10
2019-02-17T13:45:18.161Z,15.50
2019-02-17T13:47:46.561Z,15.20
2019-02-17T13:50:15.994Z,14.80
2019-02-17T13:52:44.303Z,15.00
2019-02-17T13:55:12.629Z,15.40
2019-02-17T13:57:40.990Z,15.50
2019-02-17T14:00:15.080Z,15.30
2019-02-17T14:02:43.371Z,15.10
2019-02-17T14:05:11.695Z,15.30
2019-02-17T14:07:39.989Z,15.30
2019-02-17T14:10:10.662Z,14.90
2019-02-17T14:12:38.956Z,14.60
2019-02-17T14:15:15.651Z,14.80
2019-02-17T14:17:43.946Z,15.10
2019-02-17T14:20:12.343Z,15.20
2019-02-17T14:22:40.701Z,15.10
2019-02-17T14:25:11.100Z,15.10
2019-02-17T14:27:39.716Z,15.00
2019-02-17T14:30:16.351Z,14.80
2019-02-17T14:32:44.657Z,14.70
2019-02-17T14:35:13.051Z,14.70
2019-02-17T14:37:41.376Z,14.60
2019-02-17T14:40:13.416Z,14.70
2019-02-17T14:42:41.769Z,14.80
2019-02-17T14:45:14.639Z,14.70
2019-02-17T14:47:43.034Z,14.60
2019-02-17T14:50:11.643Z,14.60
2019-02-17T14:52:39.960Z,14.60
2019-02-17T14:55:09.875Z,14.60
2019-02-17T14:57:38.283Z,14.70
2019-02-17T15:00:12.192Z,14.80
2019-02-17T15:02:40.748Z,14.80
2019-02-17T15:05:10.465Z,14.70
2019-02-17T15:07:38.797Z,14.60
2019-02-17T15:10:11.787Z,14.50
2019-02-17T15:12:40.183Z,14.50
2019-02-17T15:15:13.064Z,14.40
2019-02-17T15:17:41.428Z,14.40
2019-02-17T15:20:18.523Z,14.20
2019-02-17T15:22:46.879Z,14.00
2019-02-17T15:25:15.195Z,13.90
2019-02-17T15:27:43.535Z,13.80
2019-02-17T15:30:13.840Z,13.80
2019-02-17T15:32:42.234Z,13.80
2019-02-17T15:35:10.535Z,13.70
2019-02-17T15:37:38.924Z,13.70
2019-02-17T15:40:10.256Z,13.70
2019-02-17T15:42:38.648Z,13.60
2019-02-17T15:45:14.658Z,13.60
2019-02-17T15:47:43.142Z,13.50
2019-02-17T15:50:14.792Z,13.50
2019-02-17T15:52:43.167Z,13.40
2019-02-17T15:55:12.684Z,13.40
2019-02-17T15:57:41.004Z,13.30
2019-02-17T16:00:19.482Z,13.30
2019-02-17T16:02:48.043Z,13.20
2019-02-17T16:05:16.444Z,13.20
2019-02-17T16:07:44.820Z,13.20
2019-02-17T16:10:14.966Z,13.10
2019-02-17T16:12:43.323Z,13.00
2019-02-17T16:15:23.914Z,12.90
2019-02-17T16:17:52.322Z,12.90
2019-02-17T16:20:20.704Z,12.90
2019-02-17T16:22:49.066Z,12.70
2019-02-17T16:25:17.526Z,12.70
2019-02-17T16:27:46.505Z,12.60
2019-02-17T16:30:19.864Z,12.60
2019-02-17T16:32:48.259Z,12.60
2019-02-17T16:35:16.585Z,12.40
2019-02-17T16:37:44.945Z,12.20
2019-02-17T16:40:14.875Z,12.10
2019-02-17T16:42:43.237Z,11.90
2019-02-17T16:45:13.054Z,11.70
2019-02-17T16:47:41.728Z,11.50
2019-02-17T16:50:16.167Z,11.40
2019-02-17T16:52:44.497Z,11.30
2019-02-17T16:55:12.823Z,11.20
2019-02-17T16:57:41.222Z,11.10
2019-02-17T17:00:13.893Z,11.10
2019-02-17T17:02:42.230Z,11.10
2019-02-17T17:05:11.060Z,11.00
2019-02-17T17:07:39.458Z,10.90
2019-02-17T17:10:07.811Z,10.80
2019-02-17T17:12:36.213Z,10.80
2019-02-17T17:15:05.943Z,10.50
2019-02-17T17:17:35.620Z,10.40
2019-02-17T17:20:05.829Z,10.40
2019-02-17T17:22:35.424Z,10.20
2019-02-17T17:25:05.180Z,10.00
2019-02-17T17:27:33.534Z,9.90
2019-02-17T17:30:01.924Z,9.90
2019-02-17T17:32:30.243Z,10.00
2019-02-17T17:34:59.368Z,10.00
2019-02-17T17:37:27.927Z,10.10
2019-02-17T17:39:56.210Z,10.00
2019-02-17T17:42:24.540Z,10.00
2019-02-17T17:44:52.891Z,9.90
2019-02-17T17:47:21.279Z,9.70
2019-02-17T17:49:49.565Z,9.50
2019-02-17T17:52:17.890Z,9.40
2019-02-17T17:54:46.164Z,9.20
2019-02-17T17:57:14.449Z,9.00
2019-02-17T17:59:42.883Z,8.90
2019-02-17T18:02:11.246Z,9.10
2019-02-17T18:04:41.110Z,9.40
2019-02-17T18:07:09.537Z,9.50
2019-02-17T18:09:37.860Z,9.50
2019-02-17T18:12:06.230Z,9.70
2019-02-17T18:14:34.738Z,9.80
2019-02-17T18:17:03.099Z,9.90
2019-02-17T18:19:31.389Z,9.90
2019-02-17T18:21:59.763Z,9.80
2019-02-17T18:24:28.052Z,9.80
2019-02-17T18:26:56.428Z,9.70
2019-02-17T18:29:24.716Z,9.60
2019-02-17T18:31:53.103Z,9.60
2019-02-17T18:34:21.425Z,9.60
2019-02-17T18:36:49.699Z,9.70
2019-02-17T18:39:18.008Z,9.60
2019-02-17T18:41:46.283Z,9.50
2019-02-17T18:44:14.592Z,9.50
2019-02-17T18:46:42.884Z,9.40
2019-02-17T18:49:11.207Z,9.30
2019-02-17T18:51:41.678Z,9.20
2019-02-17T18:54:09.491Z,9.10
2019-02-17T18:56:37.884Z,9.00
2019-02-17T18:59:06.169Z,9.20
2019-02-17T19:01:34.480Z,9.10
2019-02-17T19:04:02.799Z,9.00
2019-02-17T19:06:31.081Z,9.00
2019-02-17T19:08:59.388Z,8.90
2019-02-17T19:11:27.701Z,8.70
2019-02-17T19:13:55.982Z,8.60
2019-02-17T19:16:24.372Z,8.50
2019-02-17T19:18:53.542Z,8.50
2019-02-17T19:21:21.989Z,8.60
2019-02-17T19:23:50.296Z,8.40
2019-02-17T19:26:18.652Z,8.60
2019-02-17T19:28:46.956Z,8.50
2019-02-17T19:31:15.232Z,8.50
2019-02-17T19:33:43.538Z,8.50
2019-02-17T19:36:11.823Z,8.60
2019-02-17T19:38:40.147Z,8.40
2019-02-17T19:41:08.435Z,8.30
2019-02-17T19:43:36.748Z,8.30
2019-02-17T19:46:05.112Z,8.30
2019-02-17T19:48:33.442Z,8.20
2019-02-17T19:51:01.814Z,8.20
2019-02-17T19:53:31.850Z,8.40
2019-02-17T19:56:00.169Z,8.40
2019-02-17T19:58:28.559Z,8.30
2019-02-17T20:00:57.812Z,8.20
2019-02-17T20:03:40.106Z,8.10
2019-02-17T20:06:09.762Z,8.20
2019-02-17T20:08:38.154Z,8.40
2019-02-17T20:11:06.563Z,8.30
2019-02-17T20:13:34.951Z,8.20
2019-02-17T20:16:03.255Z,8.30
2019-02-17T20:18:31.656Z,8.00
2019-02-17T20:21:00.015Z,7.90
2019-02-17T20:23:28.632Z,7.80
2019-02-17T20:25:57.958Z,7.70
2019-02-17T20:28:40.727Z,7.60
2019-02-17T20:30:56.468Z,7.90
2019-02-17T20:33:24.753Z,8.00
2019-02-17T20:36:02.445Z,7.90
2019-02-17T20:38:23.271Z,7.60
2019-02-17T20:40:51.671Z,7.80
2019-02-17T20:43:20.016Z,7.60
2019-02-17T20:45:48.372Z,7.60
2019-02-17T20:48:16.688Z,7.60
2019-02-17T20:50:44.984Z,7.50
2019-02-17T20:53:13.393Z,7.20
2019-02-17T20:55:41.712Z,7.00
2019-02-17T20:58:09.995Z,7.10
2019-02-17T21:00:38.375Z,7.30
2019-02-17T21:03:06.655Z,7.50
2019-02-17T21:05:35.032Z,7.70
2019-02-17T21:08:03.313Z,7.70
2019-02-17T21:10:31.691Z,7.80
2019-02-17T21:13:00.039Z,7.90
2019-02-17T21:15:28.424Z,7.90
2019-02-17T21:17:56.733Z,7.90
2019-02-17T21:20:25.395Z,8.00
2019-02-17T21:22:53.709Z,8.00
2019-02-17T21:25:22.101Z,8.00
2019-02-17T21:27:50.379Z,8.10
2019-02-17T21:30:19.550Z,8.10
2019-02-17T21:32:48.753Z,8.10
2019-02-17T21:35:17.479Z,8.20
2019-02-17T21:37:45.859Z,8.20
2019-02-17T21:40:14.417Z,8.20
2019-02-17T21:42:42.811Z,8.20
2019-02-17T21:45:12.388Z,8.20
2019-02-17T21:47:40.781Z,8.30
2019-02-17T21:50:13.761Z,8.40
2019-02-17T21:52:42.403Z,8.30
2019-02-17T21:55:14.623Z,8.30
2019-02-17T21:57:42.959Z,8.30
2019-02-17T22:00:15.172Z,8.30
2019-02-17T22:02:43.483Z,8.30
2019-02-17T22:05:11.769Z,8.30
2019-02-17T22:07:40.156Z,8.30
2019-02-17T22:10:11.299Z,8.30
2019-02-17T22:12:40.392Z,8.30
2019-02-17T22:15:17.311Z,8.20
2019-02-17T22:17:45.621Z,8.20
2019-02-17T22:20:13.939Z,8.30
2019-02-17T22:22:42.289Z,8.40
2019-02-17T22:25:10.671Z,8.30
2019-02-17T22:27:42.031Z,8.20
2019-02-17T22:30:14.561Z,8.30
2019-02-17T22:32:42.866Z,8.30
2019-02-17T22:35:11.155Z,8.30
2019-02-17T22:37:39.532Z,8.30
2019-02-17T22:40:11.041Z,8.40
2019-02-17T22:42:39.359Z,8.50
2019-02-17T22:45:09.811Z,8.40
2019-02-17T22:47:38.276Z,8.40
2019-02-17T22:50:09.355Z,8.40
2019-02-17T22:52:37.683Z,8.30
2019-02-17T22:55:08.914Z,8.20
2019-02-17T22:57:37.259Z,8.20
2019-02-17T23:00:11.663Z,8.10
2019-02-17T23:02:39.975Z,8.10
2019-02-17T23:05:08.794Z,8.00
2019-02-17T23:07:37.099Z,7.90
2019-02-17T23:10:07.988Z,7.60
2019-02-17T23:12:36.415Z,7.20
2019-02-17T23:15:06.531Z,6.70
2019-02-17T23:17:34.963Z,6.30
2019-02-17T23:20:04.410Z,6.00
2019-02-17T23:22:32.901Z,6.00
2019-02-17T23:25:01.281Z,5.90
2019-02-17T23:27:29.562Z,6.00
2019-02-17T23:29:57.975Z,6.30
2019-02-17T23:32:26.281Z,6.30
2019-02-17T23:34:54.587Z,6.40
2019-02-17T23:37:22.905Z,6.20
2019-02-17T23:39:51.183Z,6.10
2019-02-17T23:42:19.495Z,6.00
2019-02-17T23:44:47.774Z,5.80
2019-02-17T23:47:16.158Z,5.60
2019-02-17T23:49:44.431Z,5.60
2019-02-17T23:52:12.730Z,5.70
2019-02-17T23:54:41.012Z,5.60
2019-02-17T23:57:09.320Z,5.70
2019-02-17T23:59:37.606Z,5.30
